Time,TemperatureF,DewpointF,PressureIn,WindDirection,WindDirectionDegrees,WindSpeedMPH,WindSpeedGustMPH,Humidity,HourlyPrecipIn,Conditions,Clouds,dailyrainin,SoftwareType,DateUTC
2013-02-23 06:24:00,34.9,21.6,30.21,SE,143,2.0,4.0,58,0.00,,,-99.99,FreeWX-Wi 1.02,2013-02-23 11:24:00,
2013-02-23 06:29:00,34.9,21.6,30.21,ESE,106,1.0,3.6,58,0.00,,,-99.99,FreeWX-Wi 1.02,2013-02-23 11:29:00,
2013-02-23 06:34:00,34.9,21.6,30.21,ESE,102,1.0,4.0,58,0.00,,,-99.99,FreeWX-Wi 1.02,2013-02-23 11:34:00,
2013-02-23 06:39:00,35.1,21.7,30.21,ESE,110,1.0,3.1,58,0.00,,,-99.99,FreeWX-Wi 1.02,2013-02-23 11:39:00,
2013-02-23 06:44:00,35.1,21.7,30.21,ESE,103,1.0,4.0,58,0.00,,,-99.99,FreeWX-Wi 1.02,2013-02-23 11:44:00,
2013-02-23 06:49:00,35.1,21.7,30.21,East,89,1.0,4.0,58,0.00,,,-99.99,FreeWX-Wi 1.02,2013-02-23 11:49:00,
2013-02-23 06:54:00,35.1,21.7,30.21,East,90,1.0,4.5,58,0.00,,,-99.99,FreeWX-Wi 1.02,2013-02-23 11:54:00,
2013-02-23 06:59:00,35.2,21.9,30.21,ESE,103,1.0,0.0,58,0.00,,,-99.99,FreeWX-Wi 1.02,2013-02-23 11:59:00,
2013-02-23 07:04:00,35.2,22.3,30.21,ESE,109,1.0,4.0,59,0.00,,,-99.99,FreeWX-Wi 1.02,2013-02-23 12:04:00,
2013-02-23 07:09:00,35.2,22.8,30.21,ESE,105,1.0,4.0,60,0.00,,,-99.99,FreeWX-Wi 1.02,2013-02-23 12:09:00,
2013-02-23 07:15:00,35.4,23.0,30.21,ESE,116,1.0,3.6,60,0.00,,,-99.99,FreeWX-Wi 1.02,2013-02-23 12:15:00,
2013-02-23 07:20:00,35.4,23.4,30.21,SE,125,1.0,6.3,61,0.00,,,-99.99,FreeWX-Wi 1.02,2013-02-23 12:20:00,
2013-02-23 07:25:00,35.4,23.7,30.21,ESE,116,1.0,4.0,62,0.00,,,-99.99,FreeWX-Wi 1.02,2013-02-23 12:25:00,
2013-02-23 07:30:00,35.4,24.1,30.21,ESE,104,1.0,3.6,63,0.00,,,-99.99,FreeWX-Wi 1.02,2013-02-23 12:30:00,
2013-02-23 07:35:00,35.4,24.4,30.21,ESE,108,1.0,2.7,64,0.00,,,-99.99,FreeWX-Wi 1.02,2013-02-23 12:35:00,
2013-02-23 07:40:00,35.4,24.4,30.21,ESE,113,1.0,5.4,64,0.00,,,-99.99,FreeWX-Wi 1.02,2013-02-23 12:40:00,
2013-02-23 07:45:00,35.4,24.4,30.21,ESE,107,1.0,5.4,64,0.00,,,-99.99,FreeWX-Wi 1.02,2013-02-23 12:45:00,
2013-02-23 07:50:00,35.6,24.6,30.21,ESE,108,1.0,3.1,64,0.00,,,-99.99,FreeWX-Wi 1.02,2013-02-23 12:50:00,
2013-02-23 07:55:00,35.6,25.0,30.21,ESE,109,1.0,5.4,65,0.00,,,-99.99,FreeWX-Wi 1.02,2013-02-23 12:55:00,
2013-02-23 08:00:00,35.6,25.0,30.21,ESE,107,1.0,4.9,65,0.00,,,-99.99,FreeWX-Wi 1.02,2013-02-23 13:00:00,
2013-02-23 08:05:00,35.4,25.5,30.18,East,98,2.0,5.4,67,0.00,,,-99.99,FreeWX-Wi 1.02,2013-02-23 13:05:00,
2013-02-23 08:10:00,35.6,26.1,30.18,East,90,2.0,5.4,68,0.00,,,-99.99,FreeWX-Wi 1.02,2013-02-23 13:10:00,
2013-02-23 08:15:00,35.6,26.1,30.18,East,85,2.0,5.8,68,0.00,,,-99.99,FreeWX-Wi 1.02,2013-02-23 13:15:00,
2013-02-23 08:20:00,35.6,26.4,30.18,East,81,2.0,4.0,69,0.00,,,-99.99,FreeWX-Wi 1.02,2013-02-23 13:20:00,
2013-02-23 08:25:00,35.8,25.9,30.18,East,81,2.0,6.3,67,0.00,,,-99.99,FreeWX-Wi 1.02,2013-02-23 13:25:00,
2013-02-23 08:30:00,36.1,25.9,30.18,East,81,2.0,5.8,66,0.00,,,-99.99,FreeWX-Wi 1.02,2013-02-23 13:30:00,
2013-02-23 08:35:00,36.1,25.5,30.18,East,85,2.0,3.6,65,0.00,,,-99.99,FreeWX-Wi 1.02,2013-02-23 13:35:00,
2013-02-23 08:40:00,36.3,25.3,30.18,East,89,2.0,5.8,64,0.00,,,-99.99,FreeWX-Wi 1.02,2013-02-23 13:40:00,
2013-02-23 08:45:00,36.3,24.6,30.18,East,93,2.0,5.4,62,0.00,,,-99.99,FreeWX-Wi 1.02,2013-02-23 13:45:00,
2013-02-23 08:50:00,36.3,24.6,30.18,East,91,2.0,4.9,62,0.00,,,-99.99,FreeWX-Wi 1.02,2013-02-23 13:50:00,
2013-02-23 08:57:00,36.7,24.4,30.18,East,93,2.0,5.4,61,0.00,,,-99.99,FreeWX-Wi 1.02,2013-02-23 13:57:00,
2013-02-23 09:02:00,36.7,24.1,30.18,East,94,2.0,4.9,60,0.00,,,-99.99,FreeWX-Wi 1.02,2013-02-23 14:02:00,
2013-02-23 09:07:00,36.9,24.3,30.18,East,90,2.0,4.9,60,0.00,,,-99.99,FreeWX-Wi 1.02,2013-02-23 14:07:00,
2013-02-23 09:12:00,37.0,24.4,30.18,East,87,2.0,4.9,60,0.00,,,-99.99,FreeWX-Wi 1.02,2013-02-23 14:12:00,
2013-02-23 09:17:00,37.0,24.4,30.18,East,94,2.0,5.4,60,0.00,,,-99.99,FreeWX-Wi 1.02,2013-02-23 14:17:00,
2013-02-23 09:23:00,37.0,24.4,30.18,East,91,2.0,5.4,60,0.00,,,-99.99,FreeWX-Wi 1.02,2013-02-23 14:23:00,
2013-02-23 09:28:00,37.0,24.4,30.18,East,88,2.0,4.5,60,0.00,,,-99.99,FreeWX-Wi 1.02,2013-02-23 14:28:00,
2013-02-23 09:33:00,37.0,24.4,30.18,East,93,2.0,5.4,60,0.00,,,-99.99,FreeWX-Wi 1.02,2013-02-23 14:33:00,
2013-02-23 09:38:00,37.2,24.3,30.18,ESE,108,2.0,3.6,59,0.00,,,-99.99,FreeWX-Wi 1.02,2013-02-23 14:38:00,
2013-02-23 09:43:00,37.2,24.3,30.18,East,99,2.0,3.6,59,0.00,,,-99.99,FreeWX-Wi 1.02,2013-02-23 14:43:00,
2013-02-23 09:48:00,37.2,24.3,30.15,ESE,104,2.0,4.9,59,0.00,,,-99.99,FreeWX-Wi 1.02,2013-02-23 14:48:00,
2013-02-23 09:53:00,37.4,23.9,30.15,East,101,2.0,5.8,58,0.00,,,-99.99,FreeWX-Wi 1.02,2013-02-23 14:53:00,
2013-02-23 09:58:00,37.4,23.9,30.15,East,97,2.0,5.8,58,0.00,,,-99.99,FreeWX-Wi 1.02,2013-02-23 14:58:00,
2013-02-23 10:03:00,37.6,24.1,30.15,East,93,2.0,6.3,58,0.00,,,-99.99,FreeWX-Wi 1.02,2013-02-23 15:03:00,
2013-02-23 10:08:00,37.6,24.1,30.15,East,93,3.0,5.4,58,0.00,,,-99.99,FreeWX-Wi 1.02,2013-02-23 15:08:00,
2013-02-23 10:13:00,37.6,24.1,30.15,East,98,3.0,4.9,58,0.00,,,-99.99,FreeWX-Wi 1.02,2013-02-23 15:13:00,
2013-02-23 10:18:00,37.6,24.1,30.15,East,96,3.0,6.3,58,0.00,,,-99.99,FreeWX-Wi 1.02,2013-02-23 15:18:00,
2013-02-23 10:23:00,37.6,24.6,30.15,East,100,3.0,4.0,59,0.00,,,-99.99,FreeWX-Wi 1.02,2013-02-23 15:23:00,
2013-02-23 10:28:00,37.4,24.8,30.15,East,96,3.0,4.0,60,0.00,,,-99.99,FreeWX-Wi 1.02,2013-02-23 15:28:00,
2013-02-23 10:33:00,37.4,25.5,30.15,East,86,3.0,5.4,62,0.00,,,-99.99,FreeWX-Wi 1.02,2013-02-23 15:33:00,
2013-02-23 10:38:00,37.4,25.2,30.15,East,83,3.0,4.9,61,0.00,,,-99.99,FreeWX-Wi 1.02,2013-02-23 15:38:00,
2013-02-23 10:43:00,37.6,25.3,30.15,East,83,3.0,5.8,61,0.00,,,-99.99,FreeWX-Wi 1.02,2013-02-23 15:43:00,
2013-02-23 10:48:00,37.6,25.0,30.15,East,82,3.0,5.4,60,0.00,,,-99.99,FreeWX-Wi 1.02,2013-02-23 15:48:00,
2013-02-23 10:53:00,37.6,25.3,30.12,East,88,3.0,4.0,61,0.00,,,-99.99,FreeWX-Wi 1.02,2013-02-23 15:53:00,
2013-02-23 10:58:00,37.9,25.7,30.12,East,88,3.0,4.0,61,0.00,,,-99.99,FreeWX-Wi 1.02,2013-02-23 15:58:00,
2013-02-23 11:03:00,37.9,25.0,30.12,East,94,3.0,4.0,59,0.00,,,-99.99,FreeWX-Wi 1.02,2013-02-23 16:03:00,
2013-02-23 11:08:00,38.1,25.2,30.12,East,98,3.0,8.3,59,0.00,,,-99.99,FreeWX-Wi 1.02,2013-02-23 16:08:00,
2013-02-23 11:13:00,38.3,25.2,30.12,ESE,104,2.0,4.0,59,0.00,,,-99.99,FreeWX-Wi 1.02,2013-02-23 16:13:00,
2013-02-23 11:18:00,37.9,25.3,30.12,East,99,2.0,6.3,60,0.00,,,-99.99,FreeWX-Wi 1.02,2013-02-23 16:18:00,
2013-02-23 11:23:00,37.8,25.9,30.12,East,93,3.0,9.6,62,0.00,,,-99.99,FreeWX-Wi 1.02,2013-02-23 16:23:00,
2013-02-23 11:28:00,37.6,26.1,30.12,East,96,3.0,8.3,63,0.00,,,-99.99,FreeWX-Wi 1.02,2013-02-23 16:28:00,
2013-02-23 11:33:00,37.4,26.4,30.12,East,93,3.0,6.3,64,0.00,,,-99.99,FreeWX-Wi 1.02,2013-02-23 16:33:00,
2013-02-23 11:38:00,37.4,26.4,30.12,East,97,3.0,6.3,64,0.00,,,-99.99,FreeWX-Wi 1.02,2013-02-23 16:38:00,
2013-02-23 11:43:00,37.4,26.8,30.12,East,92,3.0,4.9,65,0.00,,,-99.99,FreeWX-Wi 1.02,2013-02-23 16:43:00,
2013-02-23 11:48:00,37.4,26.4,30.12,East,85,3.0,5.8,64,0.00,,,-99.99,FreeWX-Wi 1.02,2013-02-23 16:48:00,
2013-02-23 11:53:00,37.4,26.4,30.12,East,91,2.0,5.8,64,0.00,,,-99.99,FreeWX-Wi 1.02,2013-02-23 16:53:00,
2013-02-23 11:58:00,37.4,26.4,30.12,East,87,3.0,5.4,64,0.00,,,-99.99,FreeWX-Wi 1.02,2013-02-23 16:58:00,
2013-02-23 12:03:00,37.6,26.6,30.12,East,85,3.0,5.4,64,0.00,,,-99.99,FreeWX-Wi 1.02,2013-02-23 17:03:00,
2013-02-23 12:08:00,37.4,26.8,30.12,East,86,3.0,6.3,65,0.00,,,-99.99,FreeWX-Wi 1.02,2013-02-23 17:08:00,
2013-02-23 12:13:00,37.4,27.5,30.12,East,85,3.0,5.8,67,0.00,,,-99.99,FreeWX-Wi 1.02,2013-02-23 17:13:00,
2013-02-23 12:18:00,37.2,28.4,30.12,East,88,3.0,6.3,70,0.00,,,-99.99,FreeWX-Wi 1.02,2013-02-23 17:18:00,
2013-02-23 12:23:00,37.2,28.8,30.12,East,84,3.0,5.8,71,0.00,,,-99.99,FreeWX-Wi 1.02,2013-02-23 17:23:00,
2013-02-23 12:28:00,37.2,29.3,30.12,East,84,3.0,6.3,73,0.00,,,-99.99,FreeWX-Wi 1.02,2013-02-23 17:28:00,
2013-02-23 12:33:00,37.2,29.7,30.09,East,86,3.0,4.0,74,0.00,,,-99.99,FreeWX-Wi 1.02,2013-02-23 17:33:00,
2013-02-23 12:38:00,37.2,30.0,30.09,East,90,3.0,5.4,75,0.00,,,-99.99,FreeWX-Wi 1.02,2013-02-23 17:38:00,
2013-02-23 12:43:00,37.2,30.0,30.09,East,91,3.0,6.3,75,0.00,,,-99.99,FreeWX-Wi 1.02,2013-02-23 17:43:00,
2013-02-23 12:48:00,37.2,30.0,30.09,East,97,3.0,7.2,75,0.00,,,-99.99,FreeWX-Wi 1.02,2013-02-23 17:48:00,
2013-02-23 12:53:00,37.2,30.0,30.09,ESE,102,3.0,7.6,75,0.00,,,-99.99,FreeWX-Wi 1.02,2013-02-23 17:53:00,
2013-02-23 12:58:00,37.2,30.0,30.09,ESE,102,3.0,5.8,75,0.00,,,-99.99,FreeWX-Wi 1.02,2013-02-23 17:58:00,
2013-02-23 13:03:00,37.2,30.0,30.09,East,101,3.0,3.6,75,0.00,,,-99.99,FreeWX-Wi 1.02,2013-02-23 18:03:00,
2013-02-23 13:08:00,37.2,30.0,30.09,East,99,3.0,6.3,75,0.00,,,-99.99,FreeWX-Wi 1.02,2013-02-23 18:08:00,
2013-02-23 13:13:00,37.0,29.8,30.09,ESE,103,3.0,6.3,75,0.00,,,-99.99,FreeWX-Wi 1.02,2013-02-23 18:13:00,
2013-02-23 13:18:00,37.0,30.2,30.06,East,94,3.0,7.2,76,0.00,,,-99.99,FreeWX-Wi 1.02,2013-02-23 18:18:00,
2013-02-23 13:23:00,37.0,30.7,30.06,East,95,3.0,5.8,78,0.00,,,-99.99,FreeWX-Wi 1.02,2013-02-23 18:23:00,
2013-02-23 13:28:00,36.9,30.9,30.06,East,90,3.0,7.2,79,0.00,,,-99.99,FreeWX-Wi 1.02,2013-02-23 18:28:00,
2013-02-23 13:33:00,36.9,30.9,30.06,East,89,3.0,8.3,79,0.00,,,-99.99,FreeWX-Wi 1.02,2013-02-23 18:33:00,
2013-02-23 13:38:00,37.0,31.1,30.06,East,89,3.0,8.7,79,0.00,,,-99.99,FreeWX-Wi 1.02,2013-02-23 18:38:00,
2013-02-23 13:43:00,37.0,31.1,30.06,East,83,3.0,5.8,79,0.00,,,-99.99,FreeWX-Wi 1.02,2013-02-23 18:43:00,
2013-02-23 13:48:00,37.0,30.7,30.06,East,85,3.0,7.6,78,0.00,,,-99.99,FreeWX-Wi 1.02,2013-02-23 18:48:00,
2013-02-23 13:53:00,37.0,30.7,30.06,East,83,3.0,6.3,78,0.00,,,-99.99,FreeWX-Wi 1.02,2013-02-23 18:53:00,
2013-02-23 13:58:00,37.0,30.7,30.06,East,83,3.0,4.9,78,0.00,,,-99.99,FreeWX-Wi 1.02,2013-02-23 18:58:00,
2013-02-23 14:03:00,36.9,30.7,30.06,East,81,3.0,4.0,78,0.00,,,-99.99,FreeWX-Wi 1.02,2013-02-23 19:03:00,
2013-02-23 14:08:00,36.9,30.4,30.06,East,83,3.0,7.6,77,0.00,,,-99.99,FreeWX-Wi 1.02,2013-02-23 19:08:00,
2013-02-23 14:13:00,36.9,30.0,30.06,East,83,3.0,5.4,76,0.00,,,-99.99,FreeWX-Wi 1.02,2013-02-23 19:13:00,
2013-02-23 14:18:00,36.9,29.7,30.06,East,83,3.0,5.8,75,0.00,,,-99.99,FreeWX-Wi 1.02,2013-02-23 19:18:00,
2013-02-23 14:23:00,36.9,29.3,30.06,East,84,3.0,6.3,74,0.00,,,-99.99,FreeWX-Wi 1.02,2013-02-23 19:23:00,
2013-02-23 14:28:00,36.9,28.8,30.06,ENE,77,3.0,7.6,72,0.00,,,-99.99,FreeWX-Wi 1.02,2013-02-23 19:28:00,
2013-02-23 14:33:00,36.9,28.4,30.06,ENE,78,3.0,5.8,71,0.00,,,-99.99,FreeWX-Wi 1.02,2013-02-23 19:33:00,
2013-02-23 14:38:00,36.9,28.0,30.06,ENE,76,3.0,4.9,70,0.00,,,-99.99,FreeWX-Wi 1.02,2013-02-23 19:38:00,
2013-02-23 14:43:00,36.9,28.0,30.06,ENE,75,3.0,4.0,70,0.00,,,-99.99,FreeWX-Wi 1.02,2013-02-23 19:43:00,
2013-02-23 14:48:00,37.0,28.2,30.06,ENE,74,3.0,6.3,70,0.00,,,-99.99,FreeWX-Wi 1.02,2013-02-23 19:48:00,
2013-02-23 14:53:00,37.0,27.9,30.06,East,79,2.0,3.1,69,0.00,,,-99.99,FreeWX-Wi 1.02,2013-02-23 19:53:00,
2013-02-23 14:58:00,36.7,27.9,30.06,East,81,2.0,5.4,70,0.00,,,-99.99,FreeWX-Wi 1.02,2013-02-23 19:58:00,
2013-02-23 15:03:00,36.7,28.6,30.03,East,81,2.0,5.4,72,0.00,,,-99.99,FreeWX-Wi 1.02,2013-02-23 20:03:00,
2013-02-23 15:08:00,36.7,28.9,30.03,East,85,2.0,5.8,73,0.00,,,-99.99,FreeWX-Wi 1.02,2013-02-23 20:08:00,
2013-02-23 15:13:00,36.7,29.1,30.03,ENE,78,2.0,4.0,74,0.00,,,-99.99,FreeWX-Wi 1.02,2013-02-23 20:13:00,
2013-02-23 15:18:00,36.7,29.1,30.03,ENE,71,2.0,3.6,74,0.00,,,-99.99,FreeWX-Wi 1.02,2013-02-23 20:18:00,
2013-02-23 15:23:00,36.7,29.1,30.03,ENE,67,2.0,5.4,74,0.00,,,-99.99,FreeWX-Wi 1.02,2013-02-23 20:23:00,
2013-02-23 15:28:00,36.7,29.5,30.03,ENE,65,2.0,4.0,75,0.00,,,-99.99,FreeWX-Wi 1.02,2013-02-23 20:28:00,
2013-02-23 15:33:00,36.5,29.3,30.03,ENE,62,2.0,4.0,75,0.00,,,-99.99,FreeWX-Wi 1.02,2013-02-23 20:33:00,
2013-02-23 15:38:00,36.3,29.5,30.03,ENE,66,2.0,5.4,76,0.00,,,-99.99,FreeWX-Wi 1.02,2013-02-23 20:38:00,
2013-02-23 15:43:00,36.3,29.8,30.03,ENE,72,2.0,4.0,77,0.00,,,-99.99,FreeWX-Wi 1.02,2013-02-23 20:43:00,
2013-02-23 15:48:00,36.5,30.0,30.00,ENE,76,2.0,8.1,77,0.00,,,-99.99,FreeWX-Wi 1.02,2013-02-23 20:48:00,
2013-02-23 15:53:00,36.5,29.7,30.00,ENE,74,2.0,3.6,76,0.00,,,-99.99,FreeWX-Wi 1.02,2013-02-23 20:53:00,
2013-02-23 15:58:00,36.3,28.8,30.00,ENE,78,3.0,5.4,74,0.00,,,-99.99,FreeWX-Wi 1.02,2013-02-23 20:58:00,
2013-02-23 16:03:00,36.1,28.4,30.03,ENE,78,2.0,5.4,73,0.00,,,-99.99,FreeWX-Wi 1.02,2013-02-23 21:03:00,
2013-02-23 16:08:00,36.1,28.0,30.03,East,79,2.0,5.4,72,0.00,,,-99.99,FreeWX-Wi 1.02,2013-02-23 21:08:00,
2013-02-23 16:13:00,35.8,27.7,30.03,East,88,2.0,4.5,72,0.00,,,-99.99,FreeWX-Wi 1.02,2013-02-23 21:13:00,
2013-02-23 16:18:00,35.8,27.7,30.03,East,87,2.0,5.8,72,0.00,,,-99.99,FreeWX-Wi 1.02,2013-02-23 21:18:00,
2013-02-23 16:23:00,35.6,27.5,30.03,East,96,2.0,4.0,72,0.00,,,-99.99,FreeWX-Wi 1.02,2013-02-23 21:23:00,
2013-02-23 16:28:00,35.6,28.2,30.03,East,96,2.0,3.6,74,0.00,,,-99.99,FreeWX-Wi 1.02,2013-02-23 21:28:00,
2013-02-23 16:33:00,35.4,28.2,30.03,East,84,2.0,6.7,75,0.04,,,-99.99,FreeWX-Wi 1.02,2013-02-23 21:33:00,
2013-02-23 16:38:00,35.4,28.9,30.03,ENE,78,2.0,4.9,77,0.04,,,-99.99,FreeWX-Wi 1.02,2013-02-23 21:38:00,
2013-02-23 16:43:00,35.2,29.1,30.03,ENE,69,2.0,5.8,78,0.04,,,-99.99,FreeWX-Wi 1.02,2013-02-23 21:43:00,
2013-02-23 16:48:00,35.2,29.5,30.00,ENE,69,2.0,3.6,79,0.04,,,-99.99,FreeWX-Wi 1.02,2013-02-23 21:48:00,
2013-02-23 16:53:00,35.2,30.0,30.00,ENE,72,2.0,3.6,81,0.04,,,-99.99,FreeWX-Wi 1.02,2013-02-23 21:53:00,
2013-02-23 16:58:00,35.2,30.0,30.00,ENE,75,2.0,4.0,81,0.04,,,-99.99,FreeWX-Wi 1.02,2013-02-23 21:58:00,
2013-02-23 17:03:00,35.1,29.8,30.00,ENE,70,2.0,6.3,81,0.04,,,-99.99,FreeWX-Wi 1.02,2013-02-23 22:03:00,
2013-02-23 17:09:00,34.9,30.0,30.00,ENE,62,2.0,4.0,82,0.04,,,-99.99,FreeWX-Wi 1.02,2013-02-23 22:09:00,
2013-02-23 17:14:00,34.9,30.2,30.00,NE,56,2.0,5.4,83,0.04,,,-99.99,FreeWX-Wi 1.02,2013-02-23 22:14:00,
2013-02-23 17:19:00,34.9,30.2,30.00,NE,43,2.0,6.3,83,0.04,,,-99.99,FreeWX-Wi 1.02,2013-02-23 22:19:00,
2013-02-23 17:24:00,34.9,30.2,30.00,NE,35,2.0,4.9,83,0.04,,,-99.99,FreeWX-Wi 1.02,2013-02-23 22:24:00,
2013-02-23 17:29:00,34.7,30.0,30.00,NNE,32,2.0,4.0,83,0.04,,,-99.99,FreeWX-Wi 1.02,2013-02-23 22:29:00,
2013-02-23 17:34:00,34.5,29.8,30.00,NNE,28,2.0,5.8,83,0.00,,,-99.99,FreeWX-Wi 1.02,2013-02-23 22:34:00,
2013-02-23 17:39:00,34.5,30.2,30.00,NE,35,2.0,3.1,84,0.04,,,-99.99,FreeWX-Wi 1.02,2013-02-23 22:39:00,
2013-02-23 17:44:00,34.5,30.2,30.00,NE,37,2.0,4.0,84,0.04,,,-99.99,FreeWX-Wi 1.02,2013-02-23 22:44:00,
2013-02-23 17:49:00,34.3,29.7,30.00,NE,40,2.0,5.8,83,0.04,,,-99.99,FreeWX-Wi 1.02,2013-02-23 22:49:00,
2013-02-23 17:54:00,34.3,30.0,30.00,NE,49,2.0,4.9,84,0.04,,,-99.99,FreeWX-Wi 1.02,2013-02-23 22:54:00,
2013-02-23 17:59:00,34.5,30.6,30.00,ENE,59,2.0,5.4,85,0.04,,,-99.99,FreeWX-Wi 1.02,2013-02-23 22:59:00,
2013-02-23 18:04:00,34.5,30.6,29.97,ENE,64,2.0,4.9,85,0.04,,,-99.99,FreeWX-Wi 1.02,2013-02-23 23:04:00,
2013-02-23 18:09:00,34.5,30.6,29.97,ENE,69,2.0,3.6,85,0.04,,,-99.99,FreeWX-Wi 1.02,2013-02-23 23:09:00,
2013-02-23 18:14:00,34.5,30.7,29.97,ENE,68,2.0,3.6,86,0.08,,,-99.99,FreeWX-Wi 1.02,2013-02-23 23:14:00,
2013-02-23 18:19:00,34.3,30.6,29.97,ENE,65,2.0,4.9,86,0.08,,,-99.99,FreeWX-Wi 1.02,2013-02-23 23:19:00,
2013-02-23 18:24:00,34.3,30.9,29.97,ENE,59,2.0,4.0,87,0.08,,,-99.99,FreeWX-Wi 1.02,2013-02-23 23:24:00,
2013-02-23 18:29:00,34.3,31.1,29.97,NE,48,2.0,5.8,88,0.08,,,-99.99,FreeWX-Wi 1.02,2013-02-23 23:29:00,
2013-02-23 18:34:00,34.3,31.5,29.97,NE,44,2.0,5.8,89,0.08,,,-99.99,FreeWX-Wi 1.02,2013-02-23 23:34:00,
2013-02-23 18:39:00,34.3,31.6,29.97,NE,36,2.0,6.3,90,0.04,,,-99.99,FreeWX-Wi 1.02,2013-02-23 23:39:00,
2013-02-23 18:44:00,34.3,32.0,29.97,NE,35,2.0,4.0,91,0.04,,,-99.99,FreeWX-Wi 1.02,2013-02-23 23:44:00,
2013-02-23 18:49:00,34.3,32.0,29.97,NE,35,2.0,5.4,91,0.08,,,-99.99,FreeWX-Wi 1.02,2013-02-23 23:49:00,
2013-02-23 18:54:00,34.3,32.0,29.97,NE,41,2.0,5.4,91,0.08,,,-99.99,FreeWX-Wi 1.02,2013-02-23 23:54:00,
2013-02-23 18:59:00,34.2,32.0,29.97,NE,37,2.0,4.5,92,0.08,,,-99.99,FreeWX-Wi 1.02,2013-02-23 23:59:00,
2013-02-23 19:04:00,34.2,32.0,29.97,NE,40,2.0,5.4,92,0.08,,,-99.99,FreeWX-Wi 1.02,2013-02-24 00:04:00,
2013-02-23 19:09:00,34.3,32.5,29.97,NE,46,2.0,3.1,93,0.08,,,-99.99,FreeWX-Wi 1.02,2013-02-24 00:09:00,
2013-02-23 19:14:00,34.3,32.5,29.97,NE,54,2.0,3.1,93,0.04,,,-99.99,FreeWX-Wi 1.02,2013-02-24 00:14:00,
2013-02-23 19:19:00,34.3,32.7,29.97,ENE,61,1.0,4.0,94,0.04,,,-99.99,FreeWX-Wi 1.02,2013-02-24 00:19:00,
2013-02-23 19:24:00,34.3,32.7,29.97,ENE,60,1.0,3.6,94,0.04,,,-99.99,FreeWX-Wi 1.02,2013-02-24 00:24:00,
2013-02-23 19:29:00,34.3,33.1,29.97,ENE,63,1.0,4.0,95,0.04,,,-99.99,FreeWX-Wi 1.02,2013-02-24 00:29:00,
2013-02-23 19:34:00,34.3,33.1,29.97,ENE,60,1.0,4.0,95,0.08,,,-99.99,FreeWX-Wi 1.02,2013-02-24 00:34:00,
2013-02-23 19:39:00,34.3,33.1,29.97,NE,54,1.0,4.0,95,0.08,,,-99.99,FreeWX-Wi 1.02,2013-02-24 00:39:00,
2013-02-23 19:44:00,34.5,33.4,29.97,NE,45,2.0,3.6,96,0.08,,,-99.99,FreeWX-Wi 1.02,2013-02-24 00:44:00,
2013-02-23 19:49:00,34.5,33.8,29.94,NE,40,2.0,5.4,97,0.04,,,-99.99,FreeWX-Wi 1.02,2013-02-24 00:49:00,
2013-02-23 19:54:00,34.5,33.8,29.94,NE,40,2.0,5.8,97,0.04,,,-99.99,FreeWX-Wi 1.02,2013-02-24 00:54:00,
2013-02-23 19:59:00,34.5,34.5,29.94,NE,34,2.0,4.5,100,0.04,,,-99.99,FreeWX-Wi 1.02,2013-02-24 00:59:00,
2013-02-23 20:04:00,34.5,34.5,29.94,NNE,29,2.0,4.9,100,0.04,,,-99.99,FreeWX-Wi 1.02,2013-02-24 01:04:00,
2013-02-23 20:09:00,34.9,34.9,29.94,NNE,28,2.0,4.9,100,0.04,,,-99.99,FreeWX-Wi 1.02,2013-02-24 01:09:00,
2013-02-23 20:14:00,34.9,34.9,29.94,NNE,28,2.0,4.0,100,0.04,,,-99.99,FreeWX-Wi 1.02,2013-02-24 01:14:00,
2013-02-23 20:19:00,34.9,34.9,29.94,NNE,27,2.0,4.0,100,0.04,,,-99.99,FreeWX-Wi 1.02,2013-02-24 01:19:00,
2013-02-23 20:24:00,34.9,34.9,29.94,NNE,32,2.0,5.8,100,0.04,,,-99.99,FreeWX-Wi 1.02,2013-02-24 01:24:00,
2013-02-23 20:29:00,34.9,34.9,29.94,NE,36,2.0,4.0,100,0.04,,,-99.99,FreeWX-Wi 1.02,2013-02-24 01:29:00,
2013-02-23 20:34:00,35.1,35.1,29.94,NE,40,2.0,4.9,100,0.00,,,-99.99,FreeWX-Wi 1.02,2013-02-24 01:34:00,
2013-02-23 20:39:00,35.1,35.1,29.94,NE,39,2.0,4.9,100,0.00,,,-99.99,FreeWX-Wi 1.02,2013-02-24 01:39:00,
2013-02-23 20:44:00,35.1,35.1,29.94,NE,38,3.0,5.4,100,0.00,,,-99.99,FreeWX-Wi 1.02,2013-02-24 01:44:00,
2013-02-23 20:49:00,35.1,35.1,29.91,NE,37,3.0,5.8,100,0.00,,,-99.99,FreeWX-Wi 1.02,2013-02-24 01:49:00,
2013-02-23 20:54:00,35.2,35.2,29.91,NNE,33,3.0,5.4,100,0.00,,,-99.99,FreeWX-Wi 1.02,2013-02-24 01:54:00,
2013-02-23 20:59:00,35.1,35.1,29.91,NNE,31,3.0,5.8,100,0.00,,,-99.99,FreeWX-Wi 1.02,2013-02-24 01:59:00,
2013-02-23 21:04:00,35.2,35.2,29.91,NNE,30,3.0,5.4,100,0.00,,,-99.99,FreeWX-Wi 1.02,2013-02-24 02:04:00,
2013-02-23 21:09:00,35.2,35.2,29.91,NE,34,3.0,5.4,100,0.00,,,-99.99,FreeWX-Wi 1.02,2013-02-24 02:09:00,
2013-02-23 21:14:00,35.2,35.2,29.91,NE,35,3.0,5.8,100,0.00,,,-99.99,FreeWX-Wi 1.02,2013-02-24 02:14:00,
2013-02-23 21:19:00,35.2,34.5,29.88,NE,39,3.0,5.8,97,0.00,,,-99.99,FreeWX-Wi 1.02,2013-02-24 02:19:00,
2013-02-23 21:24:00,35.2,34.5,29.88,NE,39,3.0,4.9,97,0.00,,,-99.99,FreeWX-Wi 1.02,2013-02-24 02:24:00,
2013-02-23 21:29:00,35.1,34.0,29.88,NE,41,3.0,5.8,96,0.00,,,-99.99,FreeWX-Wi 1.02,2013-02-24 02:29:00,
2013-02-23 21:34:00,35.1,34.0,29.88,NE,41,3.0,5.4,96,0.00,,,-99.99,FreeWX-Wi 1.02,2013-02-24 02:34:00,
2013-02-23 21:39:00,35.1,34.0,29.88,NE,39,3.0,4.0,96,0.00,,,-99.99,FreeWX-Wi 1.02,2013-02-24 02:39:00,
2013-02-23 21:44:00,35.1,34.0,29.88,NE,36,3.0,5.4,96,0.00,,,-99.99,FreeWX-Wi 1.02,2013-02-24 02:44:00,
2013-02-23 21:49:00,35.2,34.5,29.88,NNE,32,3.0,4.0,97,0.00,,,-99.99,FreeWX-Wi 1.02,2013-02-24 02:49:00,
2013-02-23 21:54:00,35.2,34.5,29.88,NNE,27,3.0,7.2,97,0.00,,,-99.99,FreeWX-Wi 1.02,2013-02-24 02:54:00,
2013-02-23 22:00:00,35.2,34.5,29.88,NNE,24,3.0,5.8,97,0.00,,,-99.99,FreeWX-Wi 1.02,2013-02-24 03:00:00,
2013-02-23 22:05:00,35.4,34.7,29.85,NNE,24,3.0,5.8,97,0.00,,,-99.99,FreeWX-Wi 1.02,2013-02-24 03:05:00,
2013-02-23 22:10:00,35.4,34.7,29.85,NNE,24,3.0,4.0,97,0.00,,,-99.99,FreeWX-Wi 1.02,2013-02-24 03:10:00,
2013-02-23 22:15:00,35.4,34.3,29.85,NNE,25,3.0,6.7,96,0.00,,,-99.99,FreeWX-Wi 1.02,2013-02-24 03:15:00,
2013-02-23 22:20:00,35.6,34.5,29.85,NNE,28,3.0,5.8,96,0.00,,,-99.99,FreeWX-Wi 1.02,2013-02-24 03:20:00,
2013-02-23 22:25:00,35.8,34.7,29.85,NNE,27,3.0,6.7,96,0.00,,,-99.99,FreeWX-Wi 1.02,2013-02-24 03:25:00,
2013-02-23 22:30:00,35.8,34.2,29.85,NNE,25,3.0,5.4,94,0.00,,,-99.99,FreeWX-Wi 1.02,2013-02-24 03:30:00,
2013-02-23 22:35:00,35.8,34.0,29.85,NNE,20,3.0,4.9,93,0.00,,,-99.99,FreeWX-Wi 1.02,2013-02-24 03:35:00,
2013-02-23 22:40:00,36.0,33.8,29.85,NNE,18,3.0,5.4,92,0.00,,,-99.99,FreeWX-Wi 1.02,2013-02-24 03:40:00,
2013-02-23 22:45:00,36.0,33.8,29.85,NNE,15,3.0,5.4,92,0.00,,,-99.99,FreeWX-Wi 1.02,2013-02-24 03:45:00,
2013-02-23 22:50:00,36.1,34.0,29.85,NNE,14,3.0,5.4,92,0.00,,,-99.99,FreeWX-Wi 1.02,2013-02-24 03:50:00,
2013-02-23 22:55:00,35.8,33.4,29.85,NNE,15,3.0,5.4,91,0.00,,,-99.99,FreeWX-Wi 1.02,2013-02-24 03:55:00,
2013-02-23 23:00:00,36.0,33.8,29.85,NNE,16,3.0,5.8,92,0.00,,,-99.99,FreeWX-Wi 1.02,2013-02-24 04:00:00,
2013-02-23 23:05:00,35.8,33.6,29.85,NNE,20,3.0,5.8,92,0.00,,,-99.99,FreeWX-Wi 1.02,2013-02-24 04:05:00,
2013-02-23 23:10:00,35.8,34.0,29.85,NNE,24,3.0,5.4,93,0.00,,,-99.99,FreeWX-Wi 1.02,2013-02-24 04:10:00,
2013-02-23 23:15:00,35.6,33.8,29.85,NNE,21,3.0,5.4,93,0.00,,,-99.99,FreeWX-Wi 1.02,2013-02-24 04:15:00,
2013-02-23 23:20:00,35.6,34.0,29.82,NNE,22,3.0,5.4,94,0.00,,,-99.99,FreeWX-Wi 1.02,2013-02-24 04:20:00,
2013-02-23 23:25:00,35.6,34.3,29.82,NNE,25,3.0,4.0,95,0.00,,,-99.99,FreeWX-Wi 1.02,2013-02-24 04:25:00,
2013-02-23 23:30:00,35.4,34.3,29.82,NNE,26,3.0,4.9,96,0.00,,,-99.99,FreeWX-Wi 1.02,2013-02-24 04:30:00,
2013-02-23 23:35:00,35.2,34.2,29.82,NNE,20,3.0,4.0,96,0.00,,,-99.99,FreeWX-Wi 1.02,2013-02-24 04:35:00,
2013-02-23 23:40:00,35.4,34.7,29.82,NNE,14,2.0,4.0,97,0.00,,,-99.99,FreeWX-Wi 1.02,2013-02-24 04:40:00,
2013-02-23 23:45:00,35.2,35.2,29.82,NNE,14,2.0,3.6,100,0.00,,,-99.99,FreeWX-Wi 1.02,2013-02-24 04:45:00,
2013-02-23 23:50:00,35.2,35.2,29.82,North,11,2.0,4.0,100,0.00,,,-99.99,FreeWX-Wi 1.02,2013-02-24 04:50:00,
2013-02-23 23:55:00,35.2,35.2,29.82,North,8,2.0,4.0,100,0.00,,,-99.99,FreeWX-Wi 1.02,2013-02-24 04:55:00,